Latest Coastal Weather Observations for Cape Wessel

IDD60701

Issued at 7:01 pm CST Tuesday 2 June 2015 (issued every 10 minutes, with the page automatically refreshed every 10 minutes)

About coastal observations | Map of coastal stations | Coastal observations for NT | Marine services | Other Formats
Station Details ID: 200786 Name: CAPE WESSEL Lat: -11.00 Lon: 136.76 Height: 18.0 m
Data from the previous 72 hours. | See also: Recent months for locations in Northern Territory
Date/Time
CST
Temp

°C
Wind Pressure Rain
since 9am
mm
Weather Cloud Vis
km
Sea
Height
m
Swell
Dir
 
Speed
knots
Gust
knots
hPa Trend Height
m
Period
s
Dir
02/07:00pm 27.0 SE 19 23 1012.1 - 0.2 - - - - - - -
02/06:30pm 27.0 ESE 17 21 1011.7 - 0.2 - - - - - - -
02/06:00pm 27.2 ESE 19 22 1011.3 - 0.2 - - - - - - -
02/05:30pm 27.2 ESE 17 22 1011.3 - 0.2 - - - - - - -
02/05:00pm 27.5 ESE 18 24 1010.9 - 0.2 - - - - - - -
02/04:30pm 28.2 ESE 17 21 1010.6 - 0.2 - - - - - - -
02/04:00pm 27.8 ESE 18 22 1010.5 - 0.2 - - - - - - -
02/03:30pm 28.5 ESE 20 24 1010.4 - 0.2 - - - - - - -
02/03:00pm 28.4 ESE 18 23 1010.4 - 0.2 - - - - - - -
02/02:30pm 29.8 ESE 18 23 1010.5 - 0.2 - - - - - - -
02/02:00pm 29.7 ESE 18 22 1010.9 - 0.2 - - - - - - -
02/01:30pm 29.5 ESE 19 23 1011.2 - 0.2 - - - - - - -
02/01:00pm 29.3 ESE 17 21 1011.7 - 0.2 - - - - - - -
02/12:30pm 29.2 SE 15 20 1012.1 - 0.2 - - - - - - -
02/12:00pm 27.0 SE 16 19 1012.4 - 0.2 - - - - - - -
02/11:30am 27.2 SE 15 18 1013.0 - 0.2 - - - - - - -
02/11:00am 28.6 SE 14 18 1013.3 - 0.0 - - - - - - -
02/10:30am 28.3 SE 14 19 1013.6 - 0.0 - - - - - - -
02/10:00am 27.6 E 17 21 1013.7 - 0.0 - - - - - - -
02/09:30am 27.4 E 17 22 1013.7 - 0.0 - - - - - - -
02/09:00am 25.2 ESE 16 28 1013.7 - 3.6 - - - - - - -
02/08:38am 26.8 ESE 16 27 1013.7 - 1.2 - - - - - - -
02/08:30am 27.3 ESE 16 19 1013.6 - 1.2 - - - - - - -
02/08:00am 26.5 E 18 22 1013.5 - 1.2 - - - - - - -
02/07:30am 25.7 E 16 19 1013.0 - 1.2 - - - - - - -
02/07:00am 25.5 E 16 20 1012.7 - 1.2 - - - - - - -
02/06:30am 24.1 E 9 12 1012.4 - 1.2 - - - - - - -
02/06:00am 24.1 E 19 25 1012.3 - 1.0 - - - - - - -
02/05:30am 25.2 E 24 30 1012.1 - 0.2 - - - - - - -
02/05:12am 26.0 E 19 32 1011.9 - 0.2 - - - - - - -
02/05:00am 26.2 E 17 21 1011.7 - 0.2 - - - - - - -
02/04:30am 26.1 E 19 24 1011.6 - 0.2 - - - - - - -
02/04:00am 27.4 ESE 21 25 1011.5 - 0.2 - - - - - - -
02/03:30am 27.0 ESE 16 20 1011.5 - 0.2 - - - - - - -
02/03:00am 27.2 ESE 17 22 1011.2 - 0.2 - - - - - - -
02/02:30am 27.3 ESE 19 23 1011.7 - 0.2 - - - - - - -
02/02:00am 27.2 SE 19 24 1012.0 - 0.2 - - - - - - -
02/01:30am 27.1 SE 17 22 1012.2 - 0.2 - - - - - - -
02/01:00am 27.3 SE 20 25 1012.4 - 0.2 - - - - - - -
02/12:30am 27.2 SE 17 22 1012.7 - 0.2 - - - - - - -
02/12:00am 27.2 SE 16 19 1012.8 - 0.2 - - - - - - -
 
Date/Time
CST
Temp

°C
Wind Pressure Rain
since 9am
mm
Weather Cloud Vis
km
Sea
Height
m
Swell
Dir
 
Speed
knots
Gust
knots
hPa Trend Height
m
Period
s
Dir
01/11:30pm 27.2 ESE 19 24 1013.0 - 0.2 - - - - - - -
01/11:00pm 26.9 SE 17 20 1013.0 - 0.2 - - - - - - -
01/10:30pm 26.8 SE 18 23 1013.2 - 0.2 - - - - - - -
01/10:00pm 26.8 ESE 20 23 1013.0 - 0.2 - - - - - - -
01/09:30pm 26.9 ESE 19 23 1012.9 - 0.2 - - - - - - -
01/09:00pm 26.4 ESE 16 20 1012.7 - 0.2 - - - - - - -
01/08:30pm 26.4 ESE 21 25 1012.7 - 0.2 - - - - - - -
01/08:00pm 26.4 ESE 18 21 1012.3 - 0.2 - - - - - - -
01/07:30pm 26.8 ESE 20 26 1011.7 - 0.2 - - - - - - -
01/07:00pm 26.6 ESE 18 22 1011.5 - 0.2 - - - - - - -
01/06:30pm 26.6 ESE 14 17 1011.2 - 0.2 - - - - - - -
01/06:00pm 26.5 ESE 16 19 1010.8 - 0.2 - - - - - - -
01/05:30pm 26.7 ESE 16 20 1010.7 - 0.2 - - - - - - -
01/05:00pm 27.5 ESE 18 23 1010.4 - 0.2 - - - - - - -
01/04:30pm 27.6 ESE 18 23 1010.1 - 0.2 - - - - - - -
01/04:00pm 28.4 ESE 17 21 1010.0 - 0.2 - - - - - - -
01/03:30pm 28.0 E 17 19 1010.0 - 0.2 - - - - - - -
01/03:00pm 28.2 ESE 17 21 1010.0 - 0.2 - - - - - - -
01/02:30pm 29.3 ESE 17 21 1010.1 - 0.2 - - - - - - -
01/02:00pm 29.6 ESE 17 20 1010.5 - 0.2 - - - - - - -
01/01:30pm 28.3 ESE 16 23 1010.9 - 0.2 - - - - - - -
01/01:00pm 30.0 ESE 16 19 1011.2 - 0.2 - - - - - - -
01/12:30pm 29.5 ESE 15 19 1011.6 - 0.2 - - - - - - -
01/12:00pm 29.5 ESE 15 19 1011.6 - 0.2 - - - - - - -
01/11:30am 29.3 ESE 17 20 1012.0 - 0.2 - - - - - - -
01/11:00am 28.1 E 17 23 1012.4 - 0.2 - - - - - - -
01/10:30am 29.3 E 14 18 1012.5 - 0.2 - - - - - - -
01/10:00am 29.1 E 18 22 1012.6 - 0.2 - - - - - - -
01/09:30am 28.9 ESE 17 20 1012.8 - 0.0 - - - - - - -
01/09:00am 28.0 ESE 14 18 1012.8 - 0.2 - - - - - - -
01/08:30am 28.2 E 18 21 1012.6 - 0.2 - - - - - - -
01/08:00am 27.4 E 18 23 1012.2 - 0.2 - - - - - - -
01/07:30am 27.0 E 18 22 1011.9 - 0.2 - - - - - - -
01/07:00am 26.8 E 17 21 1011.6 - 0.2 - - - - - - -
01/06:30am 26.5 E 16 21 1011.4 - 0.2 - - - - - - -
01/06:00am 26.7 E 18 22 1010.9 - 0.2 - - - - - - -
01/05:30am 26.7 E 18 23 1010.7 - 0.2 - - - - - - -
01/05:00am 26.4 E 16 19 1010.5 - 0.2 - - - - - - -
01/04:30am 26.5 ESE 15 19 1010.4 - 0.2 - - - - - - -
01/04:00am 26.4 ESE 17 21 1010.7 - 0.2 - - - - - - -
01/03:30am 26.3 ESE 17 22 1010.8 - 0.2 - - - - - - -
01/03:00am 25.9 ESE 17 23 1011.0 - 0.2 - - - - - - -
01/02:30am 26.6 SE 17 21 1011.3 - 0.2 - - - - - - -
01/02:00am 26.9 SE 16 20 1011.6 - 0.2 - - - - - - -
01/01:30am 26.6 SE 15 19 1012.0 - 0.2 - - - - - - -
01/01:00am 26.6 SE 13 16 1012.1 - 0.2 - - - - - - -
01/12:30am 26.6 ESE 15 17 1012.2 - 0.2 - - - - - - -
01/12:00am 26.5 ESE 14 16 1012.0 - 0.2 - - - - - - -
 
Date/Time
CST
Temp

°C
Wind Pressure Rain
since 9am
mm
Weather Cloud Vis
km
Sea
Height
m
Swell
Dir
 
Speed
knots
Gust
knots
hPa Trend Height
m
Period
s
Dir
31/11:30pm 26.7 ESE 14 17 1012.5 - 0.2 - - - - - - -
31/11:00pm 26.6 ESE 14 18 1012.6 - 0.2 - - - - - - -
31/10:30pm 26.8 ESE 13 16 1012.8 - 0.2 - - - - - - -
31/10:00pm 26.7 ESE 13 16 1012.7 - 0.2 - - - - - - -
31/09:30pm 26.6 ESE 14 16 1012.6 - 0.2 - - - - - - -
31/09:00pm 26.8 ESE 12 17 1012.6 - 0.2 - - - - - - -
31/08:30pm 26.6 ESE 11 13 1012.4 - 0.2 - - - - - - -
31/08:00pm 26.6 ESE 10 14 1012.0 - 0.2 - - - - - - -
31/07:30pm 26.5 ESE 13 15 1011.6 - 0.2 - - - - - - -
31/07:00pm 26.2 ESE 11 12 1011.4 - 0.2 - - - - - - -
31/06:30pm 26.3 ESE 9 11 1011.1 - 0.2 - - - - - - -
31/06:00pm 27.1 E 9 12 1010.7 - 0.0 - - - - - - -
31/05:30pm 27.1 E 11 13 1010.6 - 0.0 - - - - - - -
31/05:00pm 27.4 E 12 15 1010.1 - 0.0 - - - - - - -
31/04:30pm 27.4 E 15 18 1009.5 - 0.0 - - - - - - -
31/04:00pm 27.6 E 14 17 1009.4 - 0.0 - - - - - - -
31/03:30pm 27.8 E 18 21 1009.2 - 0.0 - - - - - - -
31/03:00pm 27.7 E 17 19 1009.2 - 0.0 - - - - - - -
31/02:30pm 28.6 E 13 16 1010.0 - 0.0 - - - - - - -
31/02:00pm 28.2 E 11 14 1011.1 - 0.0 - - - - - - -
31/01:30pm 28.2 E 11 14 1011.7 - 0.0 - - - - - - -
31/01:00pm 28.2 E 12 14 1012.4 - 0.0 - - - - - - -
31/12:30pm 27.8 E 13 16 1012.5 - 0.0 - - - - - - -
31/12:00pm 27.7 E 14 17 1012.9 - 0.0 - - - - - - -
31/11:30am 27.3 E 15 18 1013.3 - 0.0 - - - - - - -
31/11:00am 26.6 E 18 23 1013.3 - 0.0 - - - - - - -
31/10:30am 26.5 E 16 21 1013.4 - 0.0 - - - - - - -
31/10:00am 26.8 E 13 17 1013.4 - 0.0 - - - - - - -
31/09:30am 26.8 E 16 20 1013.3 - 0.0 - - - - - - -
31/09:00am 26.9 E 16 20 1013.3 - 13.6 - - - - - - -
31/08:30am 26.8 E 19 24 1013.2 - 13.6 - - - - - - -
31/08:00am 26.6 E 19 22 1012.9 - 13.6 - - - - - - -
31/07:30am 26.5 E 17 21 1012.6 - 13.6 - - - - - - -
31/07:00am 26.2 E 16 22 1012.3 - 13.6 - - - - - - -
31/06:30am 26.6 E 16 21 1011.9 - 13.4 - - - - - - -
31/06:00am 26.8 ESE 14 18 1011.3 - 13.4 - - - - - - -
31/05:30am 26.7 ESE 15 18 1011.3 - 13.4 - - - - - - -
31/05:00am 26.6 SE 14 16 1011.1 - 13.4 - - - - - - -
31/04:30am 26.7 ESE 14 17 1010.8 - 13.4 - - - - - - -
31/04:00am 26.6 ESE 13 17 1010.7 - 13.4 - - - - - - -
31/03:30am 26.4 E 15 18 1010.6 - 13.4 - - - - - - -
31/03:00am 26.6 ESE 14 17 1010.7 - 13.4 - - - - - - -
31/02:30am 26.6 ESE 13 15 1011.2 - 13.4 - - - - - - -
31/02:00am 26.5 ESE 14 16 1011.6 - 13.4 - - - - - - -
31/01:30am 26.6 ESE 12 14 1012.0 - 13.4 - - - - - - -
31/01:00am 26.3 SE 10 12 1012.3 - 13.4 - - - - - - -
31/12:30am 26.0 ESE 9 11 1012.6 - 13.4 - - - - - - -
31/12:00am 25.9 SE 10 11 1012.8 - 13.4 - - - - - - -
 
Date/Time
CST
Temp

°C
Wind Pressure Rain
since 9am
mm
Weather Cloud Vis
km
Sea
Height
m
Swell
Dir
 
Speed
knots
Gust
knots
hPa Trend Height
m
Period
s
Dir
30/11:30pm 26.1 SE 10 13 1012.9 - 13.4 - - - - - - -
30/11:00pm 26.0 ESE 10 13 1013.4 - 13.4 - - - - - - -
30/10:30pm 26.1 ESE 12 14 1013.4 - 13.4 - - - - - - -
30/10:00pm 26.3 ESE 12 14 1013.6 - 13.4 - - - - - - -
30/09:30pm 26.2 ESE 12 15 1013.6 - 13.4 - - - - - - -
30/09:00pm 26.5 ESE 10 11 1013.4 - 13.4 - - - - - - -
30/08:30pm 26.5 E 8 9 1013.3 - 13.4 - - - - - - -
30/08:00pm 26.3 E 8 10 1012.8 - 13.4 - - - - - - -
30/07:30pm 26.2 E 10 13 1012.3 - 13.4 - - - - - - -

Other Formats:

Comma delimited format used in spreadsheet applications
http://www.bom.gov.au/fwo/IDD60701/IDD60701.94147.axf

JavaScript Object Notation format (JSON) in row-major order
http://www.bom.gov.au/fwo/IDD60701/IDD60701.94147.json